createdAt,value
2023-03-31T00:02:14.175Z,96.50
2023-03-31T00:04:46.194Z,96.60
2023-03-31T00:07:16.587Z,96.70
2023-03-31T00:09:46.744Z,96.80
2023-03-31T00:12:15.856Z,96.80
2023-03-31T00:14:43.130Z,96.70
2023-03-31T00:17:10.753Z,96.70
2023-03-31T00:19:37.676Z,96.80
2023-03-31T00:22:05.361Z,96.90
2023-03-31T00:24:33.054Z,96.90
2023-03-31T00:27:01.173Z,96.90
2023-03-31T00:29:28.831Z,97.10
2023-03-31T00:31:56.102Z,97.10
2023-03-31T00:34:22.921Z,97.10
2023-03-31T00:36:49.656Z,97.30
2023-03-31T00:39:18.685Z,97.40
2023-03-31T00:41:45.731Z,97.30
2023-03-31T00:44:18.652Z,97.00
2023-03-31T00:47:04.432Z,97.00
2023-03-31T00:49:45.412Z,97.00
2023-03-31T00:52:38.575Z,97.10
2023-03-31T00:55:14.580Z,97.10
2023-03-31T00:57:42.311Z,97.10
2023-03-31T01:00:18.669Z,97.20
2023-03-31T01:02:53.201Z,97.30
2023-03-31T01:05:24.214Z,97.40
2023-03-31T01:07:53.042Z,97.50
2023-03-31T01:10:20.362Z,97.60
2023-03-31T01:12:51.370Z,97.70
2023-03-31T01:15:18.640Z,97.80
2023-03-31T01:17:45.829Z,98.00
2023-03-31T01:20:31.375Z,98.00
2023-03-31T01:23:16.290Z,98.20
2023-03-31T01:26:01.536Z,98.50
2023-03-31T01:28:39.998Z,98.30
2023-03-31T01:31:29.848Z,98.30
2023-03-31T01:34:50.775Z,98.50
2023-03-31T01:37:21.200Z,98.40
2023-03-31T01:40:14.463Z,98.20
2023-03-31T01:43:16.150Z,98.00
2023-03-31T01:46:09.883Z,98.00
2023-03-31T01:48:45.982Z,98.10
2023-03-31T01:51:33.924Z,98.20
2023-03-31T01:54:08.513Z,98.30
2023-03-31T01:56:40.194Z,98.00
2023-03-31T01:59:23.141Z,97.80
2023-03-31T02:01:52.869Z,97.70
2023-03-31T02:04:52.209Z,97.60
2023-03-31T02:07:27.158Z,97.60
2023-03-31T02:09:58.797Z,97.40
2023-03-31T02:12:29.163Z,97.30
2023-03-31T02:14:58.415Z,97.30
2023-03-31T02:17:30.729Z,97.00
2023-03-31T02:20:01.738Z,96.80
2023-03-31T02:22:32.951Z,96.70
2023-03-31T02:25:02.017Z,96.70
2023-03-31T02:27:33.430Z,96.70
2023-03-31T02:30:00.701Z,97.00
2023-03-31T02:32:33.764Z,97.20
2023-03-31T02:35:01.841Z,97.60
2023-03-31T02:37:30.199Z,97.90
2023-03-31T02:40:00.166Z,98.10
2023-03-31T02:42:27.272Z,98.20
2023-03-31T02:44:54.065Z,98.30
2023-03-31T02:47:22.110Z,98.40
2023-03-31T02:49:54.462Z,98.50
2023-03-31T02:52:52.051Z,98.50
2023-03-31T02:55:23.234Z,98.70
2023-03-31T02:58:18.235Z,98.90
2023-03-31T03:00:58.207Z,99.00
2023-03-31T03:03:35.845Z,98.90
2023-03-31T03:06:15.599Z,98.80
2023-03-31T03:09:03.466Z,98.90
2023-03-31T03:11:36.157Z,98.80
2023-03-31T03:14:18.202Z,98.90
2023-03-31T03:16:50.281Z,98.90
2023-03-31T03:19:22.745Z,99.00
2023-03-31T03:21:50.054Z,99.00
2023-03-31T03:24:17.937Z,99.10
2023-03-31T03:26:45.631Z,99.20
2023-03-31T03:29:15.719Z,99.20
2023-03-31T03:31:43.009Z,99.30
2023-03-31T03:34:10.227Z,99.30
2023-03-31T03:36:38.134Z,99.30
2023-03-31T03:39:07.280Z,99.30
2023-03-31T03:41:35.988Z,99.30
2023-03-31T03:44:02.672Z,99.30
2023-03-31T03:46:29.626Z,99.40
2023-03-31T03:48:56.564Z,99.50
2023-03-31T03:51:23.728Z,99.50
2023-03-31T03:53:50.608Z,99.50
2023-03-31T03:56:17.368Z,99.60
2023-03-31T03:58:44.080Z,99.70
2023-03-31T04:01:10.860Z,99.70
2023-03-31T04:03:37.565Z,99.70
2023-03-31T04:06:04.753Z,99.80
2023-03-31T04:08:31.930Z,99.80
2023-03-31T04:10:58.703Z,99.80
2023-03-31T04:13:25.574Z,99.90
2023-03-31T04:15:52.428Z,99.90
2023-03-31T04:18:23.229Z,99.90
2023-03-31T04:20:54.854Z,99.90
2023-03-31T04:23:23.506Z,99.90
2023-03-31T04:25:53.266Z,99.90
2023-03-31T04:28:20.128Z,99.90
2023-03-31T04:30:47.026Z,99.90
2023-03-31T04:33:15.792Z,99.90
2023-03-31T04:35:49.643Z,99.90
2023-03-31T04:38:22.314Z,99.90
2023-03-31T04:40:51.595Z,99.90
2023-03-31T04:43:20.160Z,99.90
2023-03-31T04:45:47.374Z,99.90
2023-03-31T04:48:14.237Z,99.90
2023-03-31T04:50:41.214Z,99.90
2023-03-31T04:53:07.992Z,99.90
2023-03-31T04:55:35.355Z,99.90
2023-03-31T04:58:02.119Z,99.90
2023-03-31T05:00:29.967Z,99.90
2023-03-31T05:02:57.196Z,99.90
2023-03-31T05:05:24.112Z,99.90
2023-03-31T05:07:50.936Z,99.90
2023-03-31T05:10:17.774Z,99.90
2023-03-31T05:12:44.568Z,99.90
2023-03-31T05:15:11.545Z,99.90
2023-03-31T05:17:38.367Z,99.90
2023-03-31T05:20:08.326Z,99.90
2023-03-31T05:22:40.732Z,99.90
2023-03-31T05:25:09.965Z,99.90
2023-03-31T05:27:36.636Z,99.90
2023-03-31T05:30:04.523Z,99.90
2023-03-31T05:32:31.340Z,99.90
2023-03-31T05:34:58.176Z,99.90
2023-03-31T05:37:25.950Z,99.90
2023-03-31T05:39:53.473Z,99.90
2023-03-31T05:42:20.404Z,99.90
2023-03-31T05:44:47.255Z,99.90
2023-03-31T05:47:14.450Z,99.90
2023-03-31T05:49:41.178Z,99.90
2023-03-31T05:52:09.004Z,99.90
2023-03-31T05:54:35.763Z,99.90
2023-03-31T05:57:03.026Z,99.90
2023-03-31T05:59:29.829Z,99.90
2023-03-31T06:01:56.646Z,99.90
2023-03-31T06:04:24.346Z,99.90
2023-03-31T06:06:51.294Z,99.90
2023-03-31T06:09:18.446Z,99.90
2023-03-31T06:11:45.991Z,99.90
2023-03-31T06:14:12.766Z,99.90
2023-03-31T06:16:39.734Z,99.90
2023-03-31T06:19:06.517Z,99.90
2023-03-31T06:21:34.020Z,99.90
2023-03-31T06:24:01.210Z,99.90
2023-03-31T06:26:27.973Z,99.90
2023-03-31T06:28:54.736Z,99.90
2023-03-31T06:31:24.349Z,99.90
2023-03-31T06:33:51.835Z,99.90
2023-03-31T06:36:20.402Z,99.90
2023-03-31T06:38:47.939Z,99.90
2023-03-31T06:41:16.513Z,99.90
2023-03-31T06:43:43.369Z,99.90
2023-03-31T06:46:11.677Z,99.90
2023-03-31T06:48:38.723Z,99.90
2023-03-31T06:51:07.266Z,99.90
2023-03-31T06:53:34.825Z,99.90
2023-03-31T06:56:01.743Z,99.90
2023-03-31T06:58:31.105Z,99.90
2023-03-31T07:00:58.715Z,99.90
2023-03-31T07:03:25.717Z,99.90
2023-03-31T07:05:54.608Z,99.90
2023-03-31T07:08:22.833Z,99.90
2023-03-31T07:10:54.488Z,99.90
2023-03-31T07:13:21.424Z,99.90
2023-03-31T07:15:49.050Z,99.90
2023-03-31T07:18:17.443Z,99.90
2023-03-31T07:20:47.354Z,99.90
2023-03-31T07:23:14.145Z,99.90
2023-03-31T07:25:40.913Z,99.90
2023-03-31T07:28:07.634Z,99.90
2023-03-31T07:30:34.639Z,99.90
2023-03-31T07:33:01.906Z,99.90
2023-03-31T07:35:31.130Z,99.90
2023-03-31T07:37:58.365Z,99.90
2023-03-31T07:40:27.649Z,99.90
2023-03-31T07:42:55.216Z,99.90
2023-03-31T07:45:24.510Z,99.90
2023-03-31T07:47:51.476Z,99.90
2023-03-31T07:50:19.121Z,99.90
2023-03-31T07:52:47.230Z,99.90
2023-03-31T07:55:14.779Z,99.90
2023-03-31T07:57:42.170Z,99.90
2023-03-31T08:00:12.305Z,99.90
2023-03-31T08:02:41.466Z,99.90
2023-03-31T08:05:08.939Z,99.90
2023-03-31T08:07:37.649Z,99.90
2023-03-31T08:10:06.304Z,99.90
2023-03-31T08:12:33.369Z,99.90
2023-03-31T08:15:00.430Z,99.90
2023-03-31T08:17:27.487Z,99.90
2023-03-31T08:19:54.701Z,99.90
2023-03-31T08:22:23.316Z,99.90
2023-03-31T08:24:50.153Z,99.90
2023-03-31T08:27:17.110Z,99.90
2023-03-31T08:29:43.890Z,99.90
2023-03-31T08:32:10.735Z,99.90
2023-03-31T08:34:38.151Z,99.90
2023-03-31T08:37:06.005Z,99.90
2023-03-31T08:39:34.209Z,99.90
2023-03-31T08:42:08.170Z,99.90
2023-03-31T08:44:45.041Z,99.90
2023-03-31T08:47:18.028Z,99.90
2023-03-31T08:49:52.601Z,99.90
2023-03-31T08:52:32.947Z,99.90
2023-03-31T08:55:04.891Z,99.90
2023-03-31T08:57:45.560Z,99.90
2023-03-31T09:00:19.393Z,99.90
2023-03-31T09:02:53.838Z,99.90
2023-03-31T09:05:56.846Z,99.90
2023-03-31T09:08:35.222Z,99.90
2023-03-31T09:11:30.358Z,99.90
2023-03-31T09:14:08.902Z,99.90
2023-03-31T09:16:51.331Z,99.90
2023-03-31T09:19:44.801Z,99.90
2023-03-31T09:22:21.263Z,99.90
2023-03-31T09:25:06.641Z,99.90
2023-03-31T09:27:37.293Z,99.90
2023-03-31T09:30:20.502Z,99.60
2023-03-31T09:32:51.264Z,98.70
2023-03-31T09:35:25.367Z,98.60
2023-03-31T09:37:53.915Z,98.10
2023-03-31T09:40:26.416Z,98.70
2023-03-31T09:43:02.328Z,98.10
2023-03-31T09:45:30.756Z,97.70
2023-03-31T09:48:02.168Z,97.80
2023-03-31T09:50:30.162Z,97.00
2023-03-31T09:52:59.529Z,96.20
2023-03-31T09:56:01.070Z,95.40
2023-03-31T09:58:28.099Z,96.10
2023-03-31T10:01:07.560Z,96.50
2023-03-31T10:03:49.884Z,95.90
2023-03-31T10:06:17.875Z,95.20
2023-03-31T10:09:02.173Z,94.60
2023-03-31T10:11:29.255Z,95.00
2023-03-31T10:14:13.386Z,94.50
2023-03-31T10:16:54.051Z,94.10
2023-03-31T10:19:27.638Z,93.40
2023-03-31T10:22:16.700Z,93.80
2023-03-31T10:24:45.945Z,94.30
2023-03-31T10:27:26.263Z,94.00
2023-03-31T10:30:05.048Z,93.40
2023-03-31T10:32:33.845Z,92.50
2023-03-31T10:35:16.169Z,92.60
2023-03-31T10:37:42.925Z,92.70
2023-03-31T10:40:21.872Z,92.00
2023-03-31T10:43:03.712Z,91.20
2023-03-31T10:45:38.384Z,91.20
2023-03-31T10:48:16.908Z,91.90
2023-03-31T10:50:43.613Z,91.40
2023-03-31T10:53:15.863Z,91.00
2023-03-31T10:55:50.162Z,87.00
2023-03-31T10:58:26.289Z,88.40
2023-03-31T11:01:18.530Z,88.10
2023-03-31T11:04:00.164Z,86.80
2023-03-31T11:06:54.303Z,86.00
2023-03-31T11:09:45.816Z,85.20
2023-03-31T11:12:18.961Z,85.20
2023-03-31T11:15:08.868Z,85.80
2023-03-31T11:17:58.842Z,85.00
2023-03-31T11:20:31.762Z,84.50
2023-03-31T11:23:21.417Z,87.70
2023-03-31T11:26:12.307Z,91.40
2023-03-31T11:29:11.369Z,95.60
2023-03-31T11:32:16.853Z,97.10
2023-03-31T11:34:55.627Z,98.10
2023-03-31T11:38:01.759Z,98.30
2023-03-31T11:40:40.916Z,98.20
2023-03-31T11:43:12.289Z,99.10
2023-03-31T11:45:44.558Z,99.00
2023-03-31T11:48:28.637Z,98.90
2023-03-31T11:50:57.396Z,99.40
2023-03-31T11:53:30.446Z,99.00
2023-03-31T11:55:59.881Z,99.80
2023-03-31T11:58:40.523Z,99.90
2023-03-31T12:01:29.582Z,99.90
2023-03-31T12:04:09.679Z,99.50
2023-03-31T12:06:41.674Z,99.50
2023-03-31T12:09:19.866Z,99.50
2023-03-31T12:12:04.645Z,99.50
2023-03-31T12:14:34.728Z,99.20
2023-03-31T12:17:10.467Z,99.70
2023-03-31T12:19:55.570Z,99.30
2023-03-31T12:22:31.128Z,98.10
2023-03-31T12:24:58.285Z,97.80
2023-03-31T12:27:41.828Z,97.90
2023-03-31T12:30:34.629Z,97.80
2023-03-31T12:33:21.573Z,97.20
2023-03-31T12:35:48.340Z,97.00
2023-03-31T12:38:41.761Z,96.30
2023-03-31T12:41:40.336Z,95.20
2023-03-31T12:44:18.767Z,95.50
2023-03-31T12:47:23.330Z,93.90
2023-03-31T12:50:06.527Z,93.50
2023-03-31T12:53:08.873Z,93.90
2023-03-31T12:55:41.294Z,93.30
2023-03-31T12:58:24.760Z,93.30
2023-03-31T13:01:07.251Z,93.40
2023-03-31T13:03:34.506Z,93.20
2023-03-31T13:06:02.261Z,92.80
2023-03-31T13:08:52.178Z,92.50
2023-03-31T13:11:34.128Z,91.20
2023-03-31T13:14:16.769Z,90.70
2023-03-31T13:16:44.008Z,90.40
2023-03-31T13:19:27.636Z,89.90
2023-03-31T13:21:57.898Z,90.80
2023-03-31T13:24:29.579Z,92.30
2023-03-31T13:26:59.283Z,92.90
2023-03-31T13:29:41.072Z,93.70
2023-03-31T13:32:22.182Z,93.50
2023-03-31T13:34:58.299Z,94.40
2023-03-31T13:37:53.281Z,94.80
2023-03-31T13:40:26.122Z,95.10
2023-03-31T13:42:52.784Z,94.90
2023-03-31T13:45:41.456Z,95.00
2023-03-31T13:48:23.234Z,95.40
2023-03-31T13:51:07.609Z,95.40
2023-03-31T13:53:54.530Z,94.60
2023-03-31T13:56:39.986Z,95.30
2023-03-31T13:59:25.329Z,96.00
2023-03-31T14:02:05.185Z,95.50
2023-03-31T14:04:41.246Z,96.00
2023-03-31T14:07:12.876Z,96.70
2023-03-31T14:09:49.718Z,97.20
2023-03-31T14:12:33.192Z,97.90
2023-03-31T14:15:00.527Z,98.10
2023-03-31T14:17:37.310Z,98.10
2023-03-31T14:20:12.892Z,98.20
2023-03-31T14:22:48.805Z,98.20
2023-03-31T14:25:36.953Z,97.80
2023-03-31T14:28:34.887Z,97.10
2023-03-31T14:31:15.732Z,96.80
2023-03-31T14:34:01.382Z,96.60
2023-03-31T14:36:38.744Z,95.60
2023-03-31T14:39:09.485Z,95.40
2023-03-31T14:41:38.022Z,95.50
2023-03-31T14:44:14.341Z,95.10
2023-03-31T14:46:41.448Z,95.00
2023-03-31T14:49:25.671Z,95.70
2023-03-31T14:51:53.908Z,95.30
2023-03-31T14:54:21.862Z,94.70
2023-03-31T14:56:55.092Z,94.80
2023-03-31T14:59:27.644Z,94.10
2023-03-31T15:01:56.923Z,92.90
2023-03-31T15:04:41.441Z,93.20
2023-03-31T15:07:09.525Z,93.50
2023-03-31T15:09:36.738Z,93.90
2023-03-31T15:12:08.588Z,94.00
2023-03-31T15:14:48.142Z,94.10
2023-03-31T15:17:28.471Z,94.10
2023-03-31T15:20:00.144Z,93.90
2023-03-31T15:22:29.728Z,93.90
2023-03-31T15:24:57.569Z,94.20
2023-03-31T15:27:43.163Z,94.30
2023-03-31T15:30:17.561Z,94.30
2023-03-31T15:32:45.018Z,94.40
2023-03-31T15:35:25.785Z,94.00
2023-03-31T15:37:54.823Z,94.00
2023-03-31T15:40:25.789Z,94.10
2023-03-31T15:45:58.062Z,93.60
2023-03-31T15:48:34.761Z,93.50
2023-03-31T15:51:11.957Z,94.00
2023-03-31T15:53:45.398Z,93.90
2023-03-31T15:56:36.324Z,93.90
2023-03-31T15:59:21.785Z,94.20
2023-03-31T16:01:50.033Z,93.70
2023-03-31T16:04:17.468Z,93.80
2023-03-31T16:07:22.389Z,93.70
2023-03-31T16:09:59.327Z,93.60
2023-03-31T16:12:37.281Z,93.80
2023-03-31T16:15:08.029Z,94.10
2023-03-31T16:17:48.277Z,94.30
2023-03-31T16:20:23.065Z,94.30
2023-03-31T16:22:53.455Z,94.00
2023-03-31T16:25:23.300Z,93.90
2023-03-31T16:27:55.870Z,94.10
2023-03-31T16:30:38.127Z,94.10
2023-03-31T16:33:07.554Z,94.60
2023-03-31T16:35:39.781Z,98.40
2023-03-31T16:38:09.162Z,94.40
2023-03-31T16:40:39.198Z,93.50
2023-03-31T16:43:13.644Z,93.40
2023-03-31T16:45:43.963Z,93.80
2023-03-31T16:48:16.066Z,93.70
2023-03-31T16:50:48.880Z,93.90
2023-03-31T16:53:18.722Z,94.20
2023-03-31T16:55:45.836Z,94.20
2023-03-31T16:58:12.905Z,94.20
2023-03-31T17:00:40.794Z,94.30
2023-03-31T17:03:09.921Z,94.70
2023-03-31T17:05:42.189Z,94.50
2023-03-31T17:08:10.174Z,94.10
2023-03-31T17:10:38.848Z,94.00
2023-03-31T17:13:06.499Z,94.10
2023-03-31T17:15:36.231Z,94.20
2023-03-31T17:18:04.525Z,94.20
2023-03-31T17:20:31.741Z,94.50
2023-03-31T17:22:58.785Z,94.60
2023-03-31T17:25:26.050Z,94.70
2023-03-31T17:27:53.031Z,95.00
2023-03-31T17:30:19.896Z,95.10
2023-03-31T17:32:46.634Z,95.30
2023-03-31T17:35:20.383Z,95.10
2023-03-31T17:37:53.380Z,95.10
2023-03-31T17:40:21.728Z,95.30
2023-03-31T17:42:48.629Z,95.20
2023-03-31T17:45:15.823Z,95.50
2023-03-31T17:47:44.183Z,95.60
2023-03-31T17:50:11.885Z,96.10
2023-03-31T17:52:39.220Z,95.90
2023-03-31T17:55:06.346Z,96.00
2023-03-31T17:57:33.354Z,96.20
2023-03-31T18:00:00.380Z,96.40
2023-03-31T18:02:27.262Z,97.30
2023-03-31T18:04:54.724Z,97.90
2023-03-31T18:07:23.402Z,98.60
2023-03-31T18:09:51.417Z,99.30
2023-03-31T18:12:18.095Z,99.80
2023-03-31T18:14:46.049Z,99.90
2023-03-31T18:17:14.938Z,99.90
2023-03-31T18:19:43.488Z,99.90
2023-03-31T18:22:10.971Z,99.90
2023-03-31T18:24:39.132Z,99.90
2023-03-31T18:27:06.906Z,99.90
2023-03-31T18:29:33.722Z,99.90
2023-03-31T18:32:00.669Z,99.90
2023-03-31T18:34:27.985Z,99.90
2023-03-31T18:36:54.843Z,99.90
2023-03-31T18:39:22.105Z,99.90
2023-03-31T18:41:49.489Z,99.90
2023-03-31T18:44:17.520Z,99.90
2023-03-31T18:46:45.581Z,99.90
2023-03-31T18:49:12.778Z,99.90
2023-03-31T18:51:39.680Z,99.90
2023-03-31T18:54:06.718Z,99.90
2023-03-31T18:56:33.628Z,99.90
2023-03-31T18:59:01.486Z,99.90
2023-03-31T19:01:29.261Z,99.90
2023-03-31T19:03:56.373Z,99.90
2023-03-31T19:06:23.465Z,99.90
2023-03-31T19:08:50.590Z,99.90
2023-03-31T19:11:17.724Z,99.90
2023-03-31T19:13:44.920Z,99.90
2023-03-31T19:16:14.892Z,99.90
2023-03-31T19:18:43.567Z,99.90
2023-03-31T19:21:11.052Z,99.90
2023-03-31T19:23:45.167Z,99.90
2023-03-31T19:26:17.054Z,99.90
2023-03-31T19:28:43.987Z,99.90
2023-03-31T19:31:11.939Z,99.90
2023-03-31T19:33:38.825Z,99.90
2023-03-31T19:36:05.753Z,99.90
2023-03-31T19:38:33.447Z,99.90
2023-03-31T19:41:00.349Z,99.90
2023-03-31T19:43:28.692Z,99.90
2023-03-31T19:45:58.006Z,99.90
2023-03-31T19:48:27.474Z,99.90
2023-03-31T19:50:59.956Z,99.90
2023-03-31T19:53:27.542Z,99.90
2023-03-31T19:56:01.332Z,99.90
2023-03-31T19:58:29.476Z,99.90
2023-03-31T20:00:57.601Z,99.90
2023-03-31T20:03:26.438Z,99.90
2023-03-31T20:06:01.432Z,99.90
2023-03-31T20:08:28.576Z,99.90
2023-03-31T20:11:00.356Z,99.90
2023-03-31T20:13:28.331Z,99.90
2023-03-31T20:16:22.757Z,99.90
2023-03-31T20:19:00.355Z,99.90
2023-03-31T20:21:32.382Z,99.90
2023-03-31T20:23:59.636Z,99.90
2023-03-31T20:26:31.597Z,99.90
2023-03-31T20:29:02.231Z,99.90
2023-03-31T20:31:31.482Z,99.90
2023-03-31T20:33:58.839Z,99.90
2023-03-31T20:36:31.895Z,99.90
2023-03-31T20:39:00.293Z,99.90
2023-03-31T20:41:28.949Z,99.90
2023-03-31T20:43:56.660Z,99.90
2023-03-31T20:46:24.134Z,99.90
2023-03-31T20:48:53.426Z,99.90
2023-03-31T20:51:22.362Z,99.90
2023-03-31T20:53:52.754Z,99.90
2023-03-31T20:56:31.845Z,99.90
2023-03-31T20:59:00.565Z,99.90
2023-03-31T21:01:30.164Z,99.90
2023-03-31T21:04:00.980Z,99.90
2023-03-31T21:06:30.985Z,99.90
2023-03-31T21:08:58.218Z,99.90
2023-03-31T21:11:25.472Z,99.90
2023-03-31T21:13:53.192Z,99.90
2023-03-31T21:16:21.191Z,99.90
2023-03-31T21:18:48.435Z,99.90
2023-03-31T21:21:18.793Z,99.90
2023-03-31T21:23:46.709Z,99.90
2023-03-31T21:26:15.720Z,99.90
2023-03-31T21:28:43.794Z,99.90
2023-03-31T21:31:19.480Z,99.90
2023-03-31T21:33:47.528Z,99.90
2023-03-31T21:36:17.740Z,99.90
2023-03-31T21:38:45.636Z,99.90
2023-03-31T21:41:15.406Z,99.90
2023-03-31T21:43:43.029Z,99.90
2023-03-31T21:46:12.392Z,99.90
2023-03-31T21:48:39.198Z,99.90
2023-03-31T21:51:05.932Z,99.90
2023-03-31T21:53:32.652Z,99.90
2023-03-31T21:55:59.700Z,99.90
2023-03-31T21:58:29.131Z,99.90
2023-03-31T22:01:02.548Z,99.90
2023-03-31T22:03:32.081Z,99.90
2023-03-31T22:06:00.270Z,99.90
2023-03-31T22:08:27.830Z,99.90
2023-03-31T22:10:56.022Z,99.90
2023-03-31T22:13:24.318Z,99.90
2023-03-31T22:15:51.085Z,99.90
2023-03-31T22:18:18.224Z,99.90
2023-03-31T22:20:46.525Z,99.90
2023-03-31T22:23:13.747Z,99.90
2023-03-31T22:25:40.722Z,99.90
2023-03-31T22:28:07.633Z,99.90
2023-03-31T22:30:34.683Z,99.90
2023-03-31T22:33:01.927Z,99.90
2023-03-31T22:35:28.829Z,99.90
2023-03-31T22:37:55.797Z,99.90
2023-03-31T22:40:23.257Z,99.90
2023-03-31T22:42:50.097Z,99.90
2023-03-31T22:45:16.960Z,99.90
2023-03-31T22:47:44.084Z,99.90
2023-03-31T22:50:11.277Z,99.90
2023-03-31T22:52:38.232Z,99.90
2023-03-31T22:55:06.262Z,99.90
2023-03-31T22:57:33.307Z,99.90
2023-03-31T23:00:00.709Z,99.90
2023-03-31T23:02:27.582Z,99.90
2023-03-31T23:04:54.314Z,99.90
2023-03-31T23:07:22.014Z,99.90
2023-03-31T23:09:48.969Z,99.90
2023-03-31T23:12:15.893Z,99.90
2023-03-31T23:14:42.591Z,99.90
2023-03-31T23:17:09.338Z,99.90
2023-03-31T23:19:37.781Z,99.90
2023-03-31T23:22:05.829Z,99.90
2023-03-31T23:24:32.726Z,99.90
2023-03-31T23:26:59.650Z,99.90
2023-03-31T23:29:27.319Z,99.90
2023-03-31T23:31:54.142Z,99.90
2023-03-31T23:34:21.301Z,99.90
2023-03-31T23:36:48.237Z,99.90
2023-03-31T23:39:15.049Z,99.90
2023-03-31T23:41:42.103Z,99.90
2023-03-31T23:44:08.810Z,99.90
2023-03-31T23:46:37.815Z,99.90
2023-03-31T23:49:05.034Z,99.90
2023-03-31T23:51:31.841Z,99.90
2023-03-31T23:53:58.683Z,99.90
2023-03-31T23:56:27.085Z,99.90
2023-03-31T23:58:54.153Z,99.90
